Stockholm/Bromma

Airport
ICAO code: 
ESSB
Summary
ICAO Region: 
EUR
Territory: 
Location: 
Stockholm Municipality,
Elevation: 
47 ft
Coordinates: 
Aerial View: 
59° 21' 15.842" N, 17° 56' 30.12" E
Metar
Observation
ESSB 212220Z AUTO 32010KT 9999 NCD M04/M09 Q1019
Station
Stockholm / Bromma
Date/Time
2022-01-21 22:20:00
Wind direction
320°
Wind speed
10 kts
Lowest cloud amount
no clouds detected
Temperature
-4°C
Dew point
-9°C
Humidity
68%
QNH
1019 hPa
Weather condition
n/a

Description

Stockholm-Bromma Airport is an airport in Stockholm, Sweden. Stockholm-Bromma Airport is located 4 nm west northwest of downtown Stockholm and is the closest to the city.

Climatology

Temperate Marine climate/Oceanic climate (Köppen climate classification Cfb). Moderately cool summer and comparatively warm winter.

Runways

Designator Length Width Surface Rops
12/30 1668 45 ASP Yes/Yes
Airport map: 
Aerial View: 

Accidents and Serious Incidents at or in the vicinity of ESSB

SKYbrary Partners:

Safety knowledge contributed by: